Time,TemperatureF,DewpointF,PressureIn,WindDirection,WindDirectionDegrees,WindSpeedMPH,WindSpeedGustMPH,Humidity,HourlyPrecipIn,Conditions,Clouds,dailyrainin,SoftwareType,DateUTC
2013-11-25 00:02:00,52.9,47.0,29.81,North,352,0.0,-999.0,81,-99.99,,,0.00,weatherlink.com 1.10,2013-11-25 07:02:00,
2013-11-25 00:17:00,52.3,47.0,29.81,North,353,0.0,-999.0,82,-99.99,,,0.00,weatherlink.com 1.10,2013-11-25 07:17:00,
2013-11-25 00:32:00,51.7,47.0,29.81,North,352,0.0,-999.0,83,-99.99,,,0.00,weatherlink.com 1.10,2013-11-25 07:32:00,
2013-11-25 00:47:00,51.6,47.0,29.81,North,352,0.0,-999.0,85,-99.99,,,0.00,weatherlink.com 1.10,2013-11-25 07:47:00,
2013-11-25 01:02:00,51.0,47.0,29.81,North,353,0.0,-999.0,86,-99.99,,,0.00,weatherlink.com 1.10,2013-11-25 08:02:00,
2013-11-25 01:17:00,50.2,47.0,29.81,North,352,0.0,-999.0,87,-99.99,,,0.00,weatherlink.com 1.10,2013-11-25 08:17:00,
2013-11-25 01:32:00,50.4,47.0,29.81,North,352,0.0,-999.0,89,-99.99,,,0.00,weatherlink.com 1.10,2013-11-25 08:32:00,
2013-11-25 01:47:00,50.4,48.0,29.82,North,352,0.0,-999.0,90,-99.99,,,0.00,weatherlink.com 1.10,2013-11-25 08:47:00,
2013-11-25 02:02:00,49.8,47.0,29.82,North,352,0.0,-999.0,90,-99.99,,,0.00,weatherlink.com 1.10,2013-11-25 09:02:00,
2013-11-25 02:17:00,49.4,47.0,29.81,North,353,0.0,-999.0,90,-99.99,,,0.00,weatherlink.com 1.10,2013-11-25 09:17:00,
2013-11-25 02:32:00,49.4,47.0,29.81,North,352,0.0,-999.0,90,-99.99,,,0.00,weatherlink.com 1.10,2013-11-25 09:32:00,
2013-11-25 02:47:00,49.5,47.0,29.81,North,353,0.0,-999.0,91,-99.99,,,0.00,weatherlink.com 1.10,2013-11-25 09:47:00,
2013-11-25 03:02:00,49.1,47.0,29.81,North,353,0.0,-999.0,91,-99.99,,,0.00,weatherlink.com 1.10,2013-11-25 10:02:00,
2013-11-25 03:17:00,49.1,47.0,29.81,North,353,0.0,-999.0,92,-99.99,,,0.00,weatherlink.com 1.10,2013-11-25 10:17:00,
2013-11-25 03:32:00,48.6,46.0,29.80,North,354,0.0,-999.0,92,-99.99,,,0.00,weatherlink.com 1.10,2013-11-25 10:32:00,
2013-11-25 03:47:00,49.1,47.0,29.80,North,353,0.0,-999.0,92,-99.99,,,0.00,weatherlink.com 1.10,2013-11-25 10:47:00,
2013-11-25 04:02:00,48.8,47.0,29.80,North,353,0.0,-999.0,92,-99.99,,,0.00,weatherlink.com 1.10,2013-11-25 11:02:00,
2013-11-25 04:18:00,48.9,47.0,29.80,North,352,0.0,-999.0,92,-99.99,,,0.00,weatherlink.com 1.10,2013-11-25 11:18:00,
2013-11-25 04:33:00,48.9,47.0,29.81,North,353,0.0,-999.0,92,-99.99,,,0.00,weatherlink.com 1.10,2013-11-25 11:33:00,
2013-11-25 04:48:00,48.9,47.0,29.81,North,352,0.0,-999.0,92,-99.99,,,0.00,weatherlink.com 1.10,2013-11-25 11:48:00,
2013-11-25 05:03:00,48.8,46.0,29.81,North,359,0.0,-999.0,91,-99.99,,,0.00,weatherlink.com 1.10,2013-11-25 12:03:00,
2013-11-25 05:18:00,48.6,46.0,29.80,North,359,0.0,-999.0,91,-99.99,,,0.00,weatherlink.com 1.10,2013-11-25 12:18:00,
2013-11-25 05:33:00,48.0,45.0,29.80,North,359,0.0,-999.0,90,-99.99,,,0.00,weatherlink.com 1.10,2013-11-25 12:33:00,
2013-11-25 05:48:00,47.9,46.0,29.80,North,359,0.0,-999.0,91,-99.99,,,0.00,weatherlink.com 1.10,2013-11-25 12:48:00,
2013-11-25 06:03:00,48.0,45.0,29.81,North,359,0.0,-999.0,90,-99.99,,,0.00,weatherlink.com 1.10,2013-11-25 13:03:00,
2013-11-25 06:18:00,48.6,45.0,29.81,North,359,0.0,-999.0,88,-99.99,,,0.00,weatherlink.com 1.10,2013-11-25 13:18:00,
2013-11-25 06:33:00,49.1,45.0,29.81,North,354,0.0,-999.0,87,-99.99,,,0.00,weatherlink.com 1.10,2013-11-25 13:33:00,
2013-11-25 06:48:00,48.8,45.0,29.81,North,353,0.0,-999.0,86,-99.99,,,0.00,weatherlink.com 1.10,2013-11-25 13:48:00,
2013-11-25 07:03:00,48.6,45.0,29.82,North,356,0.0,-999.0,86,-99.99,,,0.00,weatherlink.com 1.10,2013-11-25 14:03:00,
2013-11-25 07:18:00,48.5,45.0,29.82,North,354,0.0,-999.0,86,-99.99,,,0.00,weatherlink.com 1.10,2013-11-25 14:18:00,
2013-11-25 07:33:00,48.3,45.0,29.83,North,354,0.0,-999.0,87,-99.99,,,0.00,weatherlink.com 1.10,2013-11-25 14:33:00,
2013-11-25 07:48:00,48.2,45.0,29.84,North,354,0.0,-999.0,87,-99.99,,,0.00,weatherlink.com 1.10,2013-11-25 14:48:00,
2013-11-25 08:03:00,48.2,45.0,29.84,North,356,0.0,-999.0,88,-99.99,,,0.00,weatherlink.com 1.10,2013-11-25 15:03:00,
2013-11-25 08:18:00,48.5,45.0,29.85,North,359,0.0,-999.0,87,-99.99,,,0.00,weatherlink.com 1.10,2013-11-25 15:18:00,
2013-11-25 08:33:00,49.8,45.0,29.85,North,359,0.0,-999.0,84,-99.99,,,0.00,weatherlink.com 1.10,2013-11-25 15:33:00,
2013-11-25 08:48:00,51.9,47.0,29.86,North,359,0.0,-999.0,82,-99.99,,,0.00,weatherlink.com 1.10,2013-11-25 15:48:00,
2013-11-25 09:03:00,53.9,47.0,29.86,North,357,0.0,-999.0,76,-99.99,,,0.00,weatherlink.com 1.10,2013-11-25 16:03:00,
2013-11-25 09:18:00,55.4,47.0,29.86,North,350,0.0,-999.0,73,-99.99,,,0.00,weatherlink.com 1.10,2013-11-25 16:18:00,
2013-11-25 09:33:00,56.3,47.0,29.87,North,359,0.0,-999.0,71,-99.99,,,0.00,weatherlink.com 1.10,2013-11-25 16:33:00,
2013-11-25 09:48:00,57.5,47.0,29.87,North,357,0.0,-999.0,68,-99.99,,,0.00,weatherlink.com 1.10,2013-11-25 16:48:00,
2013-11-25 10:03:00,58.7,47.0,29.87,North,359,1.0,-999.0,66,-99.99,,,0.00,weatherlink.com 1.10,2013-11-25 17:03:00,
2013-11-25 10:18:00,59.8,47.0,29.87,North,359,2.0,-999.0,63,-99.99,,,0.00,weatherlink.com 1.10,2013-11-25 17:18:00,
2013-11-25 10:33:00,60.7,47.0,29.87,North,359,3.0,-999.0,60,-99.99,,,0.00,weatherlink.com 1.10,2013-11-25 17:33:00,
2013-11-25 10:48:00,61.3,48.0,29.87,North,357,5.0,-999.0,61,-99.99,,,0.00,weatherlink.com 1.10,2013-11-25 17:48:00,
2013-11-25 11:03:00,61.6,47.0,29.87,North,357,3.0,-999.0,59,-99.99,,,0.00,weatherlink.com 1.10,2013-11-25 18:03:00,
2013-11-25 11:18:00,62.1,48.0,29.87,North,359,7.0,-999.0,60,-99.99,,,0.00,weatherlink.com 1.10,2013-11-25 18:18:00,
2013-11-25 11:33:00,63.2,48.0,29.86,North,359,10.0,-999.0,58,-99.99,,,0.00,weatherlink.com 1.10,2013-11-25 18:33:00,
2013-11-25 11:48:00,63.7,48.0,29.86,North,359,7.0,-999.0,56,-99.99,,,0.00,weatherlink.com 1.10,2013-11-25 18:48:00,
2013-11-25 12:18:00,65.2,46.0,29.84,North,357,2.0,-999.0,51,-99.99,,,0.00,weatherlink.com 1.10,2013-11-25 19:18:00,
2013-11-25 12:33:00,65.6,47.0,29.84,North,359,11.0,-999.0,51,-99.99,,,0.00,weatherlink.com 1.10,2013-11-25 19:33:00,
2013-11-25 12:48:00,66.1,45.0,29.83,North,354,7.0,-999.0,46,-99.99,,,0.00,weatherlink.com 1.10,2013-11-25 19:48:00,
2013-11-25 13:03:00,66.6,46.0,29.82,North,359,1.0,-999.0,48,-99.99,,,0.00,weatherlink.com 1.10,2013-11-25 20:03:00,
2013-11-25 13:18:00,67.1,46.0,29.82,North,359,5.0,-999.0,47,-99.99,,,0.00,weatherlink.com 1.10,2013-11-25 20:18:00,
2013-11-25 13:33:00,67.8,45.0,29.81,North,359,6.0,-999.0,44,-99.99,,,0.00,weatherlink.com 1.10,2013-11-25 20:33:00,
2013-11-25 13:48:00,67.6,45.0,29.81,North,357,3.0,-999.0,45,-99.99,,,0.00,weatherlink.com 1.10,2013-11-25 20:48:00,
2013-11-25 14:03:00,67.8,46.0,29.80,ESE,104,5.0,-999.0,45,-99.99,,,0.00,weatherlink.com 1.10,2013-11-25 21:03:00,
2013-11-25 14:19:00,67.8,45.0,29.79,North,357,6.0,-999.0,44,-99.99,,,0.00,weatherlink.com 1.10,2013-11-25 21:19:00,
2013-11-25 14:34:00,68.3,44.0,29.79,North,359,6.0,-999.0,41,-99.99,,,0.00,weatherlink.com 1.10,2013-11-25 21:34:00,
2013-11-25 14:49:00,68.8,43.0,29.79,West,274,3.0,-999.0,39,-99.99,,,0.00,weatherlink.com 1.10,2013-11-25 21:49:00,
2013-11-25 15:04:00,68.3,42.0,29.79,North,359,7.0,-999.0,39,-99.99,,,0.00,weatherlink.com 1.10,2013-11-25 22:04:00,
2013-11-25 15:19:00,68.4,43.0,29.79,North,359,6.0,-999.0,40,-99.99,,,0.00,weatherlink.com 1.10,2013-11-25 22:19:00,
2013-11-25 15:34:00,68.4,42.0,29.79,North,359,1.0,-999.0,38,-99.99,,,0.00,weatherlink.com 1.10,2013-11-25 22:34:00,
2013-11-25 15:49:00,68.1,43.0,29.79,North,353,7.0,-999.0,40,-99.99,,,0.00,weatherlink.com 1.10,2013-11-25 22:49:00,
2013-11-25 16:04:00,67.8,42.0,29.79,WNW,285,8.0,-999.0,39,-99.99,,,0.00,weatherlink.com 1.10,2013-11-25 23:04:00,
2013-11-25 16:19:00,67.8,41.0,29.79,North,357,2.0,-999.0,38,-99.99,,,0.00,weatherlink.com 1.10,2013-11-25 23:19:00,
2013-11-25 16:34:00,67.9,43.0,29.79,North,357,4.0,-999.0,40,-99.99,,,0.00,weatherlink.com 1.10,2013-11-25 23:34:00,
2013-11-25 16:49:00,67.3,43.0,29.79,North,357,5.0,-999.0,41,-99.99,,,0.00,weatherlink.com 1.10,2013-11-25 23:49:00,
2013-11-25 17:04:00,66.0,40.0,29.79,West,281,7.0,-999.0,39,-99.99,,,0.00,weatherlink.com 1.10,2013-11-26 00:04:00,
2013-11-25 17:19:00,64.8,41.0,29.79,North,357,2.0,-999.0,42,-99.99,,,0.00,weatherlink.com 1.10,2013-11-26 00:19:00,
2013-11-25 17:34:00,63.9,42.0,29.79,NNE,21,1.0,-999.0,45,-99.99,,,0.00,weatherlink.com 1.10,2013-11-26 00:34:00,
2013-11-25 17:49:00,63.1,42.0,29.79,NW,322,0.0,-999.0,47,-99.99,,,0.00,weatherlink.com 1.10,2013-11-26 00:49:00,
2013-11-25 18:04:00,62.3,43.0,29.79,SSW,202,0.0,-999.0,50,-99.99,,,0.00,weatherlink.com 1.10,2013-11-26 01:04:00,
2013-11-25 18:34:00,60.9,44.0,29.80,SW,222,0.0,-999.0,54,-99.99,,,0.00,weatherlink.com 1.10,2013-11-26 01:34:00,
2013-11-25 18:49:00,60.4,44.0,29.80,SW,232,0.0,-999.0,56,-99.99,,,0.00,weatherlink.com 1.10,2013-11-26 01:49:00,
2013-11-25 19:04:00,59.6,44.0,29.81,SW,217,0.0,-999.0,57,-99.99,,,0.00,weatherlink.com 1.10,2013-11-26 02:04:00,
2013-11-25 19:19:00,58.6,44.0,29.81,South,176,0.0,-999.0,59,-99.99,,,0.00,weatherlink.com 1.10,2013-11-26 02:19:00,
2013-11-25 19:34:00,57.8,46.0,29.81,SE,141,0.0,-999.0,65,-99.99,,,0.00,weatherlink.com 1.10,2013-11-26 02:34:00,
2013-11-25 19:49:00,57.3,46.0,29.82,NW,325,0.0,-999.0,66,-99.99,,,0.00,weatherlink.com 1.10,2013-11-26 02:49:00,
2013-11-25 20:04:00,57.0,46.0,29.82,SW,233,0.0,-999.0,67,-99.99,,,0.00,weatherlink.com 1.10,2013-11-26 03:04:00,
2013-11-25 20:19:00,56.3,46.0,29.82,NNW,328,0.0,-999.0,68,-99.99,,,0.00,weatherlink.com 1.10,2013-11-26 03:19:00,
2013-11-25 20:34:00,56.7,47.0,29.82,NW,325,0.0,-999.0,70,-99.99,,,0.00,weatherlink.com 1.10,2013-11-26 03:34:00,
2013-11-25 20:49:00,56.2,47.0,29.82,NE,49,0.0,-999.0,71,-99.99,,,0.00,weatherlink.com 1.10,2013-11-26 03:49:00,
2013-11-25 21:04:00,55.7,47.0,29.83,NNE,31,0.0,-999.0,72,-99.99,,,0.00,weatherlink.com 1.10,2013-11-26 04:04:00,
2013-11-25 21:19:00,55.3,46.0,29.83,NNE,16,0.0,-999.0,72,-99.99,,,0.00,weatherlink.com 1.10,2013-11-26 04:19:00,
2013-11-25 21:34:00,55.1,46.0,29.83,NNE,20,0.0,-999.0,71,-99.99,,,0.00,weatherlink.com 1.10,2013-11-26 04:34:00,
2013-11-25 21:49:00,55.1,46.0,29.83,North,359,0.0,-999.0,71,-99.99,,,0.00,weatherlink.com 1.10,2013-11-26 04:49:00,
2013-11-25 22:04:00,55.4,46.0,29.83,North,359,0.0,-999.0,70,-99.99,,,0.00,weatherlink.com 1.10,2013-11-26 05:04:00,
2013-11-25 22:19:00,55.9,45.0,29.83,North,356,0.0,-999.0,68,-99.99,,,0.00,weatherlink.com 1.10,2013-11-26 05:19:00,
2013-11-25 22:34:00,56.2,46.0,29.84,North,357,0.0,-999.0,68,-99.99,,,0.00,weatherlink.com 1.10,2013-11-26 05:34:00,
2013-11-25 22:49:00,55.7,46.0,29.84,NNW,337,0.0,-999.0,69,-99.99,,,0.00,weatherlink.com 1.10,2013-11-26 05:49:00,
2013-11-25 23:04:00,55.1,46.0,29.84,SSE,154,0.0,-999.0,72,-99.99,,,0.00,weatherlink.com 1.10,2013-11-26 06:04:00,
2013-11-25 23:19:00,54.4,46.0,29.85,North,357,0.0,-999.0,74,-99.99,,,0.00,weatherlink.com 1.10,2013-11-26 06:19:00,
2013-11-25 23:34:00,54.1,46.0,29.85,North,357,0.0,-999.0,73,-99.99,,,0.00,weatherlink.com 1.10,2013-11-26 06:34:00,
2013-11-25 23:49:00,54.1,46.0,29.86,North,352,0.0,-999.0,73,-99.99,,,0.00,weatherlink.com 1.10,2013-11-26 06:49:00,